createdAt,value
2023-11-23T00:00:06.918Z,18.55
2023-11-23T00:02:34.318Z,17.70
2023-11-23T00:05:01.031Z,20.63
2023-11-23T00:07:27.800Z,18.63
2023-11-23T00:09:54.636Z,20.25
2023-11-23T00:12:21.265Z,19.33
2023-11-23T00:14:47.942Z,20.13
2023-11-23T00:17:16.471Z,19.67
2023-11-23T00:19:43.064Z,19.27
2023-11-23T00:22:10.016Z,20.35
2023-11-23T00:24:36.680Z,25.33
2023-11-23T00:27:04.526Z,20.65
2023-11-23T00:29:31.356Z,23.58
2023-11-23T00:32:01.361Z,19.17
2023-11-23T00:34:28.105Z,19.73
2023-11-23T00:36:54.806Z,22.88
2023-11-23T00:39:21.645Z,24.13
2023-11-23T00:41:48.339Z,21.42
2023-11-23T00:44:15.047Z,25.77
2023-11-23T00:46:41.645Z,22.17
2023-11-23T00:49:09.744Z,20.80
2023-11-23T00:51:37.930Z,17.52
2023-11-23T00:54:07.944Z,20.65
2023-11-23T00:56:34.752Z,23.95
2023-11-23T00:59:01.378Z,22.63
2023-11-23T01:01:29.166Z,23.15
2023-11-23T01:03:56.938Z,19.27
2023-11-23T01:06:23.674Z,19.02
2023-11-23T01:08:50.453Z,18.73
2023-11-23T01:11:17.622Z,23.52
2023-11-23T01:13:44.815Z,22.95
2023-11-23T01:16:11.996Z,20.60
2023-11-23T01:18:39.081Z,23.33
2023-11-23T01:21:06.050Z,18.27
2023-11-23T01:23:32.872Z,25.17
2023-11-23T01:26:00.142Z,26.17
2023-11-23T01:28:27.047Z,23.02
2023-11-23T01:30:53.714Z,19.85
2023-11-23T01:33:20.956Z,28.30
2023-11-23T01:35:47.730Z,29.00
2023-11-23T01:38:14.933Z,26.10
2023-11-23T01:40:41.579Z,22.75
2023-11-23T01:43:12.038Z,28.15
2023-11-23T01:45:39.631Z,28.85
2023-11-23T01:48:06.850Z,23.70
2023-11-23T01:50:35.388Z,22.40
2023-11-23T01:53:02.952Z,36.35
2023-11-23T01:55:29.667Z,25.98
2023-11-23T01:57:59.228Z,23.55
2023-11-23T02:05:17.484Z,25.10
2023-11-23T02:07:44.321Z,29.27
2023-11-23T02:10:11.237Z,28.63
2023-11-23T02:12:39.406Z,28.63
2023-11-23T02:15:07.857Z,24.88
2023-11-23T02:17:35.575Z,28.02
2023-11-23T02:20:04.382Z,26.95
2023-11-23T02:22:31.314Z,30.27
2023-11-23T02:24:58.068Z,27.27
2023-11-23T02:27:24.737Z,31.75
2023-11-23T02:29:51.435Z,35.38
2023-11-23T02:32:18.527Z,31.33
2023-11-23T02:34:45.176Z,28.95
2023-11-23T02:37:11.930Z,25.92
2023-11-23T02:39:40.841Z,34.22
2023-11-23T02:42:07.579Z,32.35
2023-11-23T02:44:34.453Z,33.15
2023-11-23T02:47:01.055Z,31.08
2023-11-23T02:49:27.748Z,31.98
2023-11-23T02:51:54.750Z,28.38
2023-11-23T02:54:21.444Z,28.08
2023-11-23T02:56:48.203Z,24.05
2023-11-23T02:59:14.882Z,26.55
2023-11-23T03:01:42.881Z,26.13
2023-11-23T03:04:10.238Z,23.48
2023-11-23T03:06:36.968Z,25.55
2023-11-23T03:09:04.141Z,23.63
2023-11-23T03:11:32.552Z,25.25
2023-11-23T03:13:59.504Z,24.92
2023-11-23T03:16:26.156Z,24.27
2023-11-23T03:18:53.075Z,28.60
2023-11-23T03:21:20.070Z,24.42
2023-11-23T03:23:46.854Z,26.80
2023-11-23T03:26:14.112Z,28.45
2023-11-23T03:28:41.027Z,27.42
2023-11-23T03:31:07.871Z,25.20
2023-11-23T03:33:34.893Z,25.38
2023-11-23T03:36:01.836Z,27.75
2023-11-23T03:38:28.552Z,23.85
2023-11-23T03:40:55.166Z,30.38
2023-11-23T03:43:21.974Z,23.92
2023-11-23T03:45:48.635Z,27.02
2023-11-23T03:48:15.448Z,24.65
2023-11-23T03:50:42.288Z,21.35
2023-11-23T03:53:08.925Z,24.25
2023-11-23T03:55:35.550Z,28.00
2023-11-23T03:58:05.125Z,32.47
2023-11-23T04:00:32.925Z,29.13
2023-11-23T04:02:59.995Z,26.45
2023-11-23T04:05:26.785Z,23.58
2023-11-23T04:07:53.470Z,26.85
2023-11-23T04:10:20.199Z,26.70
2023-11-23T04:12:50.429Z,26.77
2023-11-23T04:15:18.715Z,33.63
2023-11-23T04:17:45.691Z,28.65
2023-11-23T04:20:12.518Z,26.02
2023-11-23T04:22:39.193Z,31.63
2023-11-23T04:25:06.615Z,24.38
2023-11-23T04:27:34.580Z,28.17
2023-11-23T04:30:01.652Z,29.00
2023-11-23T04:32:28.420Z,28.05
2023-11-23T04:34:55.089Z,27.20
2023-11-23T04:37:25.102Z,27.30
2023-11-23T04:39:52.906Z,29.50
2023-11-23T04:42:19.828Z,30.17
2023-11-23T04:44:46.765Z,31.98
2023-11-23T04:47:13.546Z,26.73
2023-11-23T04:49:40.164Z,36.63
2023-11-23T04:52:07.293Z,29.75
2023-11-23T04:54:34.059Z,28.90
2023-11-23T04:57:00.852Z,30.40
2023-11-23T04:59:27.531Z,28.95
2023-11-23T05:01:54.308Z,35.55
2023-11-23T05:04:22.062Z,26.23
2023-11-23T05:06:49.072Z,31.90
2023-11-23T05:09:15.795Z,33.20
2023-11-23T05:11:42.456Z,29.60
2023-11-23T05:14:09.658Z,34.85
2023-11-23T05:16:36.823Z,30.50
2023-11-23T05:19:03.747Z,29.33
2023-11-23T05:21:30.621Z,29.58
2023-11-23T05:23:59.546Z,30.15
2023-11-23T05:26:28.715Z,30.25
2023-11-23T05:28:55.389Z,34.67
2023-11-23T05:31:22.137Z,26.00
2023-11-23T05:33:48.917Z,32.58
2023-11-23T05:36:16.290Z,30.40
2023-11-23T05:38:43.080Z,26.95
2023-11-23T05:41:09.912Z,32.05
2023-11-23T05:43:36.753Z,28.77
2023-11-23T05:46:03.778Z,26.77
2023-11-23T05:48:30.617Z,30.95
2023-11-23T05:50:57.431Z,34.08
2023-11-23T05:53:25.324Z,31.63
2023-11-23T05:55:51.960Z,32.33
2023-11-23T05:58:18.597Z,35.97
2023-11-23T06:00:46.039Z,30.88
2023-11-23T06:03:13.275Z,29.73
2023-11-23T06:05:40.065Z,30.75
2023-11-23T06:08:06.749Z,33.83
2023-11-23T06:10:36.630Z,34.95
2023-11-23T06:13:03.420Z,30.67
2023-11-23T06:15:30.206Z,30.85
2023-11-23T06:18:07.478Z,35.13
2023-11-23T06:20:40.539Z,35.13
2023-11-23T06:23:07.381Z,35.50
2023-11-23T06:25:34.067Z,33.20
2023-11-23T06:28:12.464Z,31.15
2023-11-23T06:30:44.319Z,31.15
2023-11-23T06:33:11.328Z,32.80
2023-11-23T06:35:38.024Z,36.58
2023-11-23T06:38:05.732Z,32.40
2023-11-23T06:40:35.512Z,31.40
2023-11-23T06:43:03.522Z,34.15
2023-11-23T06:45:30.793Z,35.33
2023-11-23T06:47:57.617Z,33.17
2023-11-23T06:50:24.498Z,30.27
2023-11-23T06:52:51.164Z,33.13
2023-11-23T06:55:18.203Z,30.50
2023-11-23T06:57:47.845Z,32.38
2023-11-23T07:00:25.450Z,30.38
2023-11-23T07:02:58.164Z,31.33
2023-11-23T07:05:26.544Z,32.13
2023-11-23T07:07:54.816Z,34.13
2023-11-23T07:10:22.994Z,34.10
2023-11-23T07:12:50.745Z,37.67
2023-11-23T07:15:19.020Z,32.80
2023-11-23T07:17:46.447Z,34.08
2023-11-23T07:20:13.314Z,29.90
2023-11-23T07:22:40.845Z,29.55
2023-11-23T07:25:10.490Z,35.22
2023-11-23T07:27:38.533Z,35.70
2023-11-23T07:30:07.825Z,37.92
2023-11-23T07:32:35.838Z,31.35
2023-11-23T07:35:04.187Z,31.70
2023-11-23T07:37:32.062Z,31.33
2023-11-23T07:39:58.754Z,29.48
2023-11-23T07:42:26.752Z,30.83
2023-11-23T07:44:53.853Z,31.38
2023-11-23T07:47:21.192Z,30.15
2023-11-23T07:49:48.020Z,32.17
2023-11-23T07:52:15.354Z,31.40
2023-11-23T07:54:42.191Z,31.67
2023-11-23T07:57:08.953Z,30.02
2023-11-23T07:59:37.783Z,31.95
2023-11-23T08:02:05.737Z,32.17
2023-11-23T08:04:32.934Z,30.40
2023-11-23T08:07:00.158Z,28.73
2023-11-23T08:09:27.499Z,27.15
2023-11-23T08:11:57.173Z,33.22
2023-11-23T08:14:24.723Z,32.33
2023-11-23T08:16:51.553Z,28.55
2023-11-23T08:19:19.179Z,26.02
2023-11-23T08:21:49.080Z,33.92
2023-11-23T08:24:18.150Z,33.50
2023-11-23T08:26:45.187Z,30.55
2023-11-23T08:29:12.826Z,30.08
2023-11-23T08:31:40.711Z,28.70
2023-11-23T08:34:08.791Z,32.10
2023-11-23T08:36:36.902Z,33.72
2023-11-23T08:39:06.044Z,30.52
2023-11-23T08:41:33.123Z,26.45
2023-11-23T08:44:00.909Z,26.95
2023-11-23T08:46:28.451Z,30.83
2023-11-23T08:48:55.634Z,30.10
2023-11-23T08:51:23.500Z,29.05
2023-11-23T08:53:51.013Z,29.27
2023-11-23T08:56:17.740Z,29.60
2023-11-23T08:58:44.498Z,29.65
2023-11-23T09:01:11.749Z,23.30
2023-11-23T09:03:38.923Z,23.63
2023-11-23T09:06:06.349Z,25.50
2023-11-23T09:08:33.330Z,26.10
2023-11-23T09:11:00.073Z,25.90
2023-11-23T09:13:27.059Z,26.50
2023-11-23T09:15:55.312Z,29.52
2023-11-23T09:18:23.446Z,19.83
2023-11-23T09:20:52.260Z,23.10
2023-11-23T09:23:19.350Z,20.83
2023-11-23T09:25:46.927Z,24.17
2023-11-23T09:28:14.634Z,27.52
2023-11-23T09:30:42.347Z,21.55
2023-11-23T09:33:10.736Z,33.78
2023-11-23T09:35:39.556Z,26.83
2023-11-23T09:38:07.794Z,28.55
2023-11-23T09:40:34.985Z,24.08
2023-11-23T09:43:02.331Z,21.95
2023-11-23T09:45:30.597Z,20.67
2023-11-23T09:47:58.197Z,22.77
2023-11-23T09:50:34.144Z,21.85
2023-11-23T09:53:03.907Z,25.50
2023-11-23T09:55:31.909Z,20.25
2023-11-23T09:57:58.641Z,21.23
2023-11-23T10:00:26.217Z,22.98
2023-11-23T10:02:57.818Z,22.17
2023-11-23T10:05:25.280Z,23.75
2023-11-23T10:07:54.841Z,22.35
2023-11-23T10:10:22.333Z,23.92
2023-11-23T10:12:50.262Z,20.40
2023-11-23T10:15:17.108Z,18.85
2023-11-23T10:17:44.001Z,20.65
2023-11-23T10:20:16.480Z,20.58
2023-11-23T10:22:48.314Z,20.15
2023-11-23T10:25:32.681Z,18.42
2023-11-23T10:28:00.891Z,20.65
2023-11-23T10:30:29.906Z,18.95
2023-11-23T10:32:59.004Z,15.52
2023-11-23T10:35:35.541Z,18.60
2023-11-23T10:38:03.330Z,15.90
2023-11-23T10:40:30.731Z,20.67
2023-11-23T10:43:03.685Z,18.83
2023-11-23T10:45:36.954Z,14.93
2023-11-23T10:48:05.305Z,16.02
2023-11-23T10:50:36.220Z,19.92
2023-11-23T10:53:03.533Z,23.08
2023-11-23T10:55:30.305Z,22.23
2023-11-23T10:58:09.239Z,16.77
2023-11-23T11:00:37.150Z,15.48
2023-11-23T11:03:11.054Z,16.35
2023-11-23T11:05:46.581Z,18.58
2023-11-23T11:10:51.185Z,16.45
2023-11-23T11:13:27.867Z,18.98
2023-11-23T11:16:07.987Z,17.85
2023-11-23T11:18:39.902Z,14.07
2023-11-23T11:21:17.412Z,19.42
2023-11-23T11:23:47.659Z,12.85
2023-11-23T11:26:19.541Z,13.15
2023-11-23T11:29:06.995Z,11.35
2023-11-23T11:31:36.439Z,10.20
2023-11-23T11:34:18.539Z,15.18
2023-11-23T11:36:47.379Z,15.52
2023-11-23T11:39:15.813Z,14.02
2023-11-23T11:41:46.692Z,11.45
2023-11-23T11:44:16.878Z,13.05
2023-11-23T11:46:45.035Z,9.18
2023-11-23T11:49:12.876Z,11.15
2023-11-23T11:51:40.028Z,9.75
2023-11-23T11:54:08.180Z,15.07
2023-11-23T11:56:35.475Z,15.13
2023-11-23T11:59:05.097Z,12.90
2023-11-23T12:01:32.737Z,12.07
2023-11-23T12:04:01.868Z,10.65
2023-11-23T12:06:30.704Z,9.98
2023-11-23T12:08:58.601Z,9.40
2023-11-23T12:11:29.332Z,8.77
2023-11-23T12:13:58.444Z,11.10
2023-11-23T12:16:36.228Z,10.10
2023-11-23T12:19:25.753Z,8.90
2023-11-23T12:21:57.813Z,11.15
2023-11-23T12:24:31.046Z,10.15
2023-11-23T12:26:58.438Z,7.90
2023-11-23T12:29:30.295Z,8.52
2023-11-23T12:32:03.023Z,8.05
2023-11-23T12:34:30.660Z,7.55
2023-11-23T12:36:59.223Z,5.82
2023-11-23T12:39:26.631Z,8.30
2023-11-23T12:41:55.410Z,9.98
2023-11-23T12:44:22.835Z,8.30
2023-11-23T12:46:50.260Z,12.88
2023-11-23T12:49:17.391Z,6.63
2023-11-23T12:51:45.661Z,10.13
2023-11-23T12:54:12.595Z,6.32
2023-11-23T12:56:40.271Z,7.18
2023-11-23T12:59:07.033Z,7.72
2023-11-23T13:01:36.084Z,9.27
2023-11-23T13:04:07.817Z,6.68
2023-11-23T13:06:35.552Z,9.30
2023-11-23T13:09:02.584Z,9.73
2023-11-23T13:11:29.291Z,7.60
2023-11-23T13:13:56.501Z,7.85
2023-11-23T13:16:24.910Z,5.65
2023-11-23T13:19:06.340Z,6.57
2023-11-23T13:21:40.019Z,9.55
2023-11-23T13:24:08.092Z,8.73
2023-11-23T13:26:35.427Z,7.18
2023-11-23T13:29:02.216Z,16.77
2023-11-23T13:31:29.334Z,7.32
2023-11-23T13:33:56.978Z,10.55
2023-11-23T13:36:23.952Z,8.55
2023-11-23T13:38:51.561Z,9.55
2023-11-23T13:41:19.663Z,8.65
2023-11-23T13:43:46.799Z,7.85
2023-11-23T13:46:15.638Z,11.43
2023-11-23T13:48:44.229Z,9.90
2023-11-23T13:51:11.427Z,6.82
2023-11-23T13:53:38.120Z,8.55
2023-11-23T13:56:05.689Z,7.18
2023-11-23T13:58:32.439Z,10.13
2023-11-23T14:01:01.002Z,6.65
2023-11-23T14:03:31.375Z,7.40
2023-11-23T14:05:59.699Z,8.75
2023-11-23T14:08:26.794Z,9.38
2023-11-23T14:10:54.250Z,10.05
2023-11-23T14:13:21.182Z,7.22
2023-11-23T14:15:48.100Z,5.47
2023-11-23T14:18:16.182Z,8.10
2023-11-23T14:20:44.566Z,6.95
2023-11-23T14:23:13.215Z,6.78
2023-11-23T14:25:42.064Z,7.40
2023-11-23T14:28:16.049Z,7.63
2023-11-23T14:30:46.904Z,5.82
2023-11-23T14:33:14.917Z,9.45
2023-11-23T14:35:42.341Z,8.55
2023-11-23T14:38:12.025Z,8.07
2023-11-23T14:40:39.058Z,5.07
2023-11-23T14:43:05.992Z,4.00
2023-11-23T14:45:33.625Z,6.97
2023-11-23T14:48:00.902Z,6.63
2023-11-23T14:50:30.244Z,8.70
2023-11-23T14:52:59.661Z,5.70
2023-11-23T14:55:26.889Z,7.10
2023-11-23T14:57:53.580Z,8.73
2023-11-23T15:00:20.705Z,6.53
2023-11-23T15:02:51.114Z,11.77
2023-11-23T15:05:19.753Z,7.43
2023-11-23T15:07:47.068Z,7.03
2023-11-23T15:10:20.119Z,6.03
2023-11-23T15:12:54.194Z,5.43
2023-11-23T15:15:22.117Z,5.90
2023-11-23T15:17:50.601Z,6.88
2023-11-23T15:20:19.909Z,6.68
2023-11-23T15:22:47.285Z,7.05
2023-11-23T15:25:14.101Z,5.70
2023-11-23T15:27:43.512Z,7.32
2023-11-23T15:30:12.327Z,9.18
2023-11-23T15:32:40.789Z,9.60
2023-11-23T15:35:09.965Z,8.35
2023-11-23T15:37:37.261Z,5.82
2023-11-23T15:40:09.950Z,7.25
2023-11-23T15:42:39.854Z,6.20
2023-11-23T15:45:07.478Z,5.32
2023-11-23T15:47:34.362Z,5.30
2023-11-23T15:50:01.094Z,4.65
2023-11-23T15:52:27.935Z,6.93
2023-11-23T15:54:54.830Z,7.95
2023-11-23T15:57:55.731Z,7.13
2023-11-23T16:00:25.067Z,7.65
2023-11-23T16:02:52.992Z,10.77
2023-11-23T16:05:27.215Z,5.65
2023-11-23T16:07:54.841Z,7.70
2023-11-23T16:10:21.739Z,7.93
2023-11-23T16:12:49.410Z,4.13
2023-11-23T16:15:17.681Z,7.15
2023-11-23T16:17:44.481Z,5.70
2023-11-23T16:20:16.148Z,11.75
2023-11-23T16:22:45.518Z,7.28
2023-11-23T16:25:12.347Z,12.88
2023-11-23T16:27:40.120Z,7.15
2023-11-23T16:30:11.059Z,6.85
2023-11-23T16:32:39.419Z,8.93
2023-11-23T16:35:07.952Z,5.53
2023-11-23T16:37:35.248Z,5.78
2023-11-23T16:40:02.043Z,12.15
2023-11-23T16:42:28.834Z,6.25
2023-11-23T16:44:55.555Z,8.13
2023-11-23T16:47:22.521Z,7.55
2023-11-23T16:49:49.610Z,6.53
2023-11-23T16:52:16.292Z,7.22
2023-11-23T16:54:42.989Z,8.88
2023-11-23T16:57:09.730Z,8.77
2023-11-23T16:59:37.345Z,6.07
2023-11-23T17:02:04.766Z,7.35
2023-11-23T17:04:31.618Z,8.13
2023-11-23T17:06:58.326Z,8.70
2023-11-23T17:09:25.508Z,10.18
2023-11-23T17:11:53.953Z,11.80
2023-11-23T17:14:20.947Z,10.25
2023-11-23T17:16:50.752Z,8.27
2023-11-23T17:19:17.577Z,9.80
2023-11-23T17:21:49.625Z,10.40
2023-11-23T17:24:17.540Z,6.80
2023-11-23T17:26:44.248Z,8.18
2023-11-23T17:29:11.848Z,10.05
2023-11-23T17:31:42.309Z,8.82
2023-11-23T17:34:09.829Z,8.57
2023-11-23T17:36:36.629Z,7.03
2023-11-23T17:39:06.848Z,8.23
2023-11-23T17:41:33.661Z,9.05
2023-11-23T17:44:00.312Z,11.57
2023-11-23T17:46:27.702Z,10.45
2023-11-23T17:48:54.534Z,11.07
2023-11-23T17:51:21.228Z,12.27
2023-11-23T17:53:47.996Z,7.78
2023-11-23T17:56:16.413Z,14.98
2023-11-23T17:58:43.302Z,12.43
2023-11-23T18:01:10.792Z,10.88
2023-11-23T18:03:37.689Z,13.93
2023-11-23T18:06:06.587Z,14.73
2023-11-23T18:08:33.251Z,11.93
2023-11-23T18:11:00.169Z,11.48
2023-11-23T18:13:30.143Z,19.85
2023-11-23T18:15:56.860Z,13.05
2023-11-23T18:18:24.690Z,13.65
2023-11-23T18:20:52.988Z,16.60
2023-11-23T18:23:20.476Z,13.23
2023-11-23T18:25:47.719Z,16.85
2023-11-23T18:28:14.425Z,17.27
2023-11-23T18:30:41.250Z,18.50
2023-11-23T18:33:08.084Z,19.77
2023-11-23T18:35:34.869Z,17.35
2023-11-23T18:38:06.567Z,19.17
2023-11-23T18:40:36.666Z,22.25
2023-11-23T18:43:04.751Z,17.05
2023-11-23T18:45:35.140Z,16.38
2023-11-23T18:48:05.055Z,17.27
2023-11-23T18:50:31.842Z,16.85
2023-11-23T18:52:59.379Z,18.15
2023-11-23T18:55:26.918Z,19.33
2023-11-23T18:57:54.041Z,19.88
2023-11-23T19:00:22.961Z,22.50
2023-11-23T19:02:50.961Z,22.65
2023-11-23T19:05:19.666Z,14.82
2023-11-23T19:07:46.621Z,18.25
2023-11-23T19:10:15.233Z,17.30
2023-11-23T19:12:49.002Z,17.27
2023-11-23T19:15:17.600Z,18.10
2023-11-23T19:17:45.275Z,19.75
2023-11-23T19:20:14.308Z,19.67
2023-11-23T19:22:41.395Z,22.15
2023-11-23T19:25:09.266Z,19.02
2023-11-23T19:27:36.590Z,20.13
2023-11-23T19:30:06.695Z,21.00
2023-11-23T19:32:33.716Z,16.10
2023-11-23T19:35:01.199Z,18.35
2023-11-23T19:37:28.536Z,18.50
2023-11-23T19:39:55.775Z,19.95
2023-11-23T19:42:23.268Z,21.38
2023-11-23T19:44:50.539Z,20.35
2023-11-23T19:47:17.911Z,17.40
2023-11-23T19:49:45.038Z,24.63
2023-11-23T19:52:23.303Z,20.55
2023-11-23T19:54:54.006Z,19.02
2023-11-23T19:57:21.164Z,18.85
2023-11-23T19:59:48.241Z,23.55
2023-11-23T20:02:15.457Z,22.63
2023-11-23T20:04:45.236Z,18.77
2023-11-23T20:07:12.540Z,23.83
2023-11-23T20:09:39.752Z,28.98
2023-11-23T20:12:06.824Z,25.23
2023-11-23T20:14:35.067Z,22.05
2023-11-23T20:17:01.764Z,27.40
2023-11-23T20:19:29.629Z,19.88
2023-11-23T20:21:56.908Z,26.55
2023-11-23T20:24:25.325Z,27.98
2023-11-23T20:26:52.551Z,21.85
2023-11-23T20:29:20.072Z,28.98
2023-11-23T20:31:46.875Z,24.75
2023-11-23T20:34:14.067Z,27.52
2023-11-23T20:36:41.357Z,20.30
2023-11-23T20:39:10.383Z,27.05
2023-11-23T20:41:37.181Z,28.98
2023-11-23T20:44:04.011Z,27.88
2023-11-23T20:46:30.686Z,25.45
2023-11-23T20:48:57.573Z,29.33
2023-11-23T20:51:24.380Z,25.85
2023-11-23T20:53:53.470Z,23.92
2023-11-23T20:56:25.863Z,31.65
2023-11-23T20:58:53.300Z,27.58
2023-11-23T21:01:22.451Z,29.08
2023-11-23T21:03:51.516Z,25.73
2023-11-23T21:06:21.757Z,27.45
2023-11-23T21:08:49.334Z,22.75
2023-11-23T21:11:16.425Z,24.20
2023-11-23T21:13:43.156Z,23.67
2023-11-23T21:16:10.245Z,20.50
2023-11-23T21:18:37.042Z,25.85
2023-11-23T21:21:03.907Z,24.15
2023-11-23T21:23:32.604Z,20.25
2023-11-23T21:26:00.039Z,25.95
2023-11-23T21:28:26.826Z,20.27
2023-11-23T21:30:53.632Z,24.45
2023-11-23T21:33:20.438Z,26.33
2023-11-23T21:35:47.145Z,25.98
2023-11-23T21:38:13.885Z,23.73
2023-11-23T21:40:41.501Z,22.95
2023-11-23T21:43:08.237Z,24.27
2023-11-23T21:45:35.994Z,23.63
2023-11-23T21:48:02.790Z,25.05
2023-11-23T21:50:30.113Z,25.80
2023-11-23T21:52:56.765Z,22.38
2023-11-23T21:55:23.475Z,22.75
2023-11-23T21:57:51.364Z,20.92
2023-11-23T22:00:18.310Z,24.30
2023-11-23T22:02:45.486Z,25.67
2023-11-23T22:05:12.197Z,25.45
2023-11-23T22:07:38.902Z,30.02
2023-11-23T22:10:06.927Z,26.38
2023-11-23T22:12:34.501Z,26.00
2023-11-23T22:15:01.224Z,27.58
2023-11-23T22:17:28.509Z,24.90
2023-11-23T22:19:55.546Z,27.27
2023-11-23T22:22:22.688Z,21.75
2023-11-23T22:24:50.428Z,23.95
2023-11-23T22:27:17.654Z,22.98
2023-11-23T22:29:44.681Z,27.13
2023-11-23T22:32:14.558Z,19.23
2023-11-23T22:34:41.600Z,22.63
2023-11-23T22:37:08.838Z,18.92
2023-11-23T22:39:35.845Z,25.95
2023-11-23T22:42:02.837Z,20.08
2023-11-23T22:44:29.925Z,20.98
2023-11-23T22:46:57.340Z,21.05
2023-11-23T22:49:25.216Z,19.70
2023-11-23T22:51:51.997Z,14.18
2023-11-23T22:54:18.745Z,5.57
2023-11-23T22:56:45.453Z,0.60
2023-11-23T22:59:12.219Z,5.32
2023-11-23T23:01:38.999Z,2.47
2023-11-23T23:04:10.810Z,1.45
2023-11-23T23:06:38.184Z,0.28
2023-11-23T23:09:05.403Z,0.00
2023-11-23T23:11:34.395Z,0.63
2023-11-23T23:14:01.063Z,0.00
2023-11-23T23:16:30.581Z,0.00
2023-11-23T23:18:58.470Z,0.00
2023-11-23T23:21:31.923Z,0.00
2023-11-23T23:23:58.844Z,0.52
2023-11-23T23:26:26.185Z,0.00
2023-11-23T23:28:52.889Z,0.00
2023-11-23T23:31:19.600Z,0.00
2023-11-23T23:33:46.408Z,0.00
2023-11-23T23:36:13.117Z,0.00
2023-11-23T23:38:40.104Z,0.00
2023-11-23T23:41:06.882Z,0.00
2023-11-23T23:43:33.588Z,0.00
2023-11-23T23:46:00.354Z,0.00
2023-11-23T23:48:27.126Z,0.10
2023-11-23T23:50:53.906Z,0.08
2023-11-23T23:53:20.590Z,0.00
2023-11-23T23:55:47.367Z,0.00
2023-11-23T23:58:16.738Z,0.00
